Time;durP1;ratioP1;P1;durP2;ratioP2;P2;SDS_P1;SDS_P2;PMS_P1;PMS_P2;Temp;Humidity;BMP_temperature;BMP_pressure;BME280_temperature;BME280_humidity;BME280_pressure;Samples;Min_cycle;Max_cycle;Signal;HPM_P1;HPM_P2
2023/12/18 00:01:11;;;;;;;8.67;4.27;;;;;;;;;;5073894;28;20549;-75
2023/12/18 00:03:55;;;;;;;9.03;4.57;;;;;;;;;;5074728;28;20169;-77
2023/12/18 00:06:22;;;;;;;12.17;5.30;;;;;;;;;;5075590;28;20186;-77
2023/12/18 00:08:49;;;;;;;8.57;4.43;;;;;;;;;;5074337;28;20193;-77
2023/12/18 00:11:15;;;;;;;10.17;4.87;;;;;;;;;;5073876;28;20190;-78
2023/12/18 00:13:42;;;;;;;10.73;5.23;;;;;;;;;;5057248;28;20186;-75
2023/12/18 00:16:09;;;;;;;9.83;4.20;;;;;;;;;;5073817;28;20178;-75
2023/12/18 00:18:35;;;;;;;11.60;5.03;;;;;;;;;;5040632;28;20213;-75
2023/12/18 00:21:03;;;;;;;9.03;4.90;;;;;;;;;;5073891;28;20193;-76
2023/12/18 00:23:47;;;;;;;14.03;5.33;;;;;;;;;;5074768;28;20240;-75
2023/12/18 00:26:14;;;;;;;10.90;5.07;;;;;;;;;;5073955;28;20186;-76
2023/12/18 00:28:58;;;;;;;9.90;5.17;;;;;;;;;;5073596;28;20606;-77
2023/12/18 00:31:24;;;;;;;8.70;4.50;;;;;;;;;;5074929;28;20618;-77
2023/12/18 00:33:52;;;;;;;13.07;4.60;;;;;;;;;;5056784;28;20213;-76
2023/12/18 00:36:18;;;;;;;10.50;4.27;;;;;;;;;;5074426;28;20613;-77
2023/12/18 00:38:45;;;;;;;5.37;3.33;;;;;;;;;;5074440;28;20272;-77
2023/12/18 00:41:12;;;;;;;10.80;5.13;;;;;;;;;;5040874;28;20531;-78
2023/12/18 00:43:38;;;;;;;12.13;4.40;;;;;;;;;;5073074;28;20260;-78
2023/12/18 00:46:05;;;;;;;9.20;4.83;;;;;;;;;;5073749;28;20503;-76
2023/12/18 00:48:32;;;;;;;12.20;4.33;;;;;;;;;;5057035;28;20186;-77
2023/12/18 00:50:58;;;;;;;7.60;4.03;;;;;;;;;;5073593;28;20190;-76
2023/12/18 00:53:25;;;;;;;9.50;4.03;;;;;;;;;;5072510;28;20236;-76
2023/12/18 00:55:52;;;;;;;8.13;3.33;;;;;;;;;;5056554;28;20175;-77
2023/12/18 00:58:18;;;;;;;5.90;2.93;;;;;;;;;;5056885;28;20231;-75
2023/12/18 01:00:45;;;;;;;5.40;3.10;;;;;;;;;;5074393;28;20205;-77
2023/12/18 01:03:12;;;;;;;8.10;3.33;;;;;;;;;;5056356;28;20218;-77
2023/12/18 01:05:38;;;;;;;7.37;2.87;;;;;;;;;;5056554;28;20255;-76
2023/12/18 01:08:05;;;;;;;6.50;3.03;;;;;;;;;;5056989;28;20186;-76
2023/12/18 01:10:32;;;;;;;4.77;2.40;;;;;;;;;;5040267;28;20189;-76
2023/12/18 01:56:52;;;;;;;4.10;1.10;;;;;;;;;;5054227;28;20560;-75
2023/12/18 01:59:20;;;;;;;1.60;1.00;;;;;;;;;;5053169;28;20198;-77
2023/12/18 02:01:46;;;;;;;2.03;1.20;;;;;;;;;;5019525;28;20194;-77
2023/12/18 02:04:13;;;;;;;2.07;1.20;;;;;;;;;;5036189;28;20206;-76
2023/12/18 02:06:40;;;;;;;2.63;1.30;;;;;;;;;;5035907;28;20187;-77
2023/12/18 02:09:08;;;;;;;2.63;1.10;;;;;;;;;;5036482;28;20189;-76
2023/12/18 02:11:34;;;;;;;3.43;1.60;;;;;;;;;;5019103;28;20286;-76
2023/12/18 02:14:19;;;;;;;2.67;1.50;;;;;;;;;;5024221;28;20178;-75
2023/12/18 02:16:45;;;;;;;1.50;0.90;;;;;;;;;;5035479;28;20191;-77
2023/12/18 02:19:25;;;;;;;2.57;0.90;;;;;;;;;;5035282;28;20202;-75
2023/12/18 02:21:53;;;;;;;4.23;1.40;;;;;;;;;;5020291;28;20198;-77
2023/12/18 02:24:20;;;;;;;1.60;0.93;;;;;;;;;;5053483;28;20218;-75
2023/12/18 02:26:47;;;;;;;3.07;1.30;;;;;;;;;;5053290;28;20226;-75
2023/12/18 02:29:13;;;;;;;3.43;1.33;;;;;;;;;;5035904;28;20183;-77
2023/12/18 02:31:42;;;;;;;1.77;1.47;;;;;;;;;;5019408;28;20638;-76
2023/12/18 02:34:08;;;;;;;3.47;1.60;;;;;;;;;;5035746;28;20561;-77
2023/12/18 02:36:35;;;;;;;2.33;1.20;;;;;;;;;;5020736;28;20214;-76
2023/12/18 02:39:02;;;;;;;3.23;1.50;;;;;;;;;;5056583;28;20179;-74
2023/12/18 02:41:29;;;;;;;3.57;1.60;;;;;;;;;;5038967;28;20187;-76
2023/12/18 02:43:57;;;;;;;3.07;1.60;;;;;;;;;;5057390;28;20209;-75
2023/12/18 02:46:23;;;;;;;2.67;1.10;;;;;;;;;;5039110;28;20210;-75
2023/12/18 02:48:50;;;;;;;4.17;1.50;;;;;;;;;;5056459;28;20277;-75
2023/12/18 02:51:17;;;;;;;2.33;1.37;;;;;;;;;;5039021;28;20202;-76
2023/12/18 02:53:44;;;;;;;2.13;1.00;;;;;;;;;;5038731;28;20183;-78
2023/12/18 02:56:12;;;;;;;3.10;0.93;;;;;;;;;;5057033;28;20226;-76
2023/12/18 02:58:38;;;;;;;3.13;1.40;;;;;;;;;;5039276;28;20194;-77
2023/12/18 03:01:05;;;;;;;1.17;0.90;;;;;;;;;;5022244;28;20214;-76
2023/12/18 03:03:32;;;;;;;3.00;1.40;;;;;;;;;;5038845;28;20182;-77
2023/12/18 03:05:58;;;;;;;4.77;1.57;;;;;;;;;;5039584;28;20195;-77
2023/12/18 03:08:25;;;;;;;1.53;1.10;;;;;;;;;;5038499;28;20187;-76
2023/12/18 03:10:52;;;;;;;2.63;1.13;;;;;;;;;;5055854;28;20289;-76
2023/12/18 03:13:18;;;;;;;1.30;0.90;;;;;;;;;;5038644;28;20273;-74
2023/12/18 03:16:03;;;;;;;2.60;0.97;;;;;;;;;;5056535;28;20158;-74
2023/12/18 03:18:29;;;;;;;0.73;0.50;;;;;;;;;;5021264;28;20219;-79
2023/12/18 03:20:56;;;;;;;2.53;1.20;;;;;;;;;;5056105;28;20210;-74
2023/12/18 03:23:23;;;;;;;2.77;1.00;;;;;;;;;;5056409;28;20626;-72
2023/12/18 03:25:50;;;;;;;2.07;1.03;;;;;;;;;;5021820;28;20543;-72
2023/12/18 03:28:18;;;;;;;2.27;0.70;;;;;;;;;;5038631;28;20191;-77
2023/12/18 03:30:44;;;;;;;2.00;1.10;;;;;;;;;;5056305;28;20688;-76
2023/12/18 03:33:11;;;;;;;1.83;0.80;;;;;;;;;;5056009;28;20190;-77
2023/12/18 03:35:39;;;;;;;0.97;0.77;;;;;;;;;;5037421;28;20282;-76
2023/12/18 03:38:06;;;;;;;0.70;0.60;;;;;;;;;;5054580;28;20290;-76
2023/12/18 03:40:33;;;;;;;1.37;0.70;;;;;;;;;;5055809;28;20207;-75
2023/12/18 03:43:00;;;;;;;1.00;0.67;;;;;;;;;;5038048;28;20571;-76
2023/12/18 03:45:26;;;;;;;1.33;0.80;;;;;;;;;;5037846;28;20538;-75
2023/12/18 03:47:53;;;;;;;1.30;0.50;;;;;;;;;;5054635;28;20210;-76
2023/12/18 03:50:20;;;;;;;1.67;0.80;;;;;;;;;;5055574;28;20183;-75
2023/12/18 03:52:47;;;;;;;0.80;0.60;;;;;;;;;;5055805;28;20194;-75
2023/12/18 03:55:16;;;;;;;2.37;0.57;;;;;;;;;;5040805;28;20222;-73
2023/12/18 03:57:42;;;;;;;1.33;0.70;;;;;;;;;;5055115;28;20185;-75
2023/12/18 04:00:10;;;;;;;1.10;0.50;;;;;;;;;;5055154;28;20199;-74
2023/12/18 04:02:39;;;;;;;0.80;0.70;;;;;;;;;;5054547;28;20268;-79
2023/12/18 04:05:08;;;;;;;0.90;0.60;;;;;;;;;;5053725;28;20510;-75
2023/12/18 04:07:35;;;;;;;1.00;0.70;;;;;;;;;;5054997;28;20183;-78
2023/12/18 04:10:02;;;;;;;1.33;0.83;;;;;;;;;;5070469;28;20230;-77
2023/12/18 04:12:29;;;;;;;0.63;0.60;;;;;;;;;;5037834;28;20210;-77
2023/12/18 04:14:56;;;;;;;0.77;0.60;;;;;;;;;;5053553;28;20193;-77
2023/12/18 04:17:23;;;;;;;1.00;0.60;;;;;;;;;;5053729;28;20191;-76
2023/12/18 04:19:53;;;;;;;0.80;0.57;;;;;;;;;;5021750;28;20214;-75
2023/12/18 04:22:20;;;;;;;0.90;0.63;;;;;;;;;;5055502;28;20197;-75
2023/12/18 04:24:46;;;;;;;0.60;0.60;;;;;;;;;;5053531;28;20197;-75
2023/12/18 04:27:13;;;;;;;1.60;0.63;;;;;;;;;;5037123;28;20225;-75
2023/12/18 04:29:40;;;;;;;1.07;0.40;;;;;;;;;;5053939;28;20186;-78
2023/12/18 04:32:07;;;;;;;0.97;0.80;;;;;;;;;;5055116;28;20626;-76
2023/12/18 04:34:34;;;;;;;1.27;0.77;;;;;;;;;;5054343;28;20236;-77
2023/12/18 04:37:01;;;;;;;0.73;0.70;;;;;;;;;;5054737;28;20232;-75
2023/12/18 04:39:29;;;;;;;0.50;0.50;;;;;;;;;;5053345;28;20191;-74
2023/12/18 04:41:56;;;;;;;0.60;0.50;;;;;;;;;;5054419;28;20297;-79
2023/12/18 04:44:23;;;;;;;0.77;0.67;;;;;;;;;;5036681;28;20542;-80
2023/12/18 04:46:50;;;;;;;0.97;0.60;;;;;;;;;;5054195;28;20630;-80
2023/12/18 04:49:17;;;;;;;0.60;0.60;;;;;;;;;;5054751;28;20187;-79
2023/12/18 04:51:44;;;;;;;1.40;0.80;;;;;;;;;;5052784;28;20195;-80
2023/12/18 04:54:10;;;;;;;1.17;0.80;;;;;;;;;;5054631;28;20190;-78
2023/12/18 04:56:37;;;;;;;0.90;0.60;;;;;;;;;;5053026;28;20271;-81
2023/12/18 04:59:04;;;;;;;0.63;0.60;;;;;;;;;;5053977;28;20183;-81
2023/12/18 05:01:31;;;;;;;0.70;0.57;;;;;;;;;;5054622;28;20587;-77
2023/12/18 05:03:57;;;;;;;0.90;0.60;;;;;;;;;;5036151;28;20198;-79
2023/12/18 05:06:26;;;;;;;1.13;0.50;;;;;;;;;;5052754;28;20688;-81
2023/12/18 05:08:53;;;;;;;1.40;0.80;;;;;;;;;;5036473;28;20186;-81
2023/12/18 05:11:21;;;;;;;0.53;0.40;;;;;;;;;;5052826;28;20187;-75
2023/12/18 05:13:48;;;;;;;1.00;0.40;;;;;;;;;;5054308;28;20192;-79
2023/12/18 05:16:15;;;;;;;0.80;0.70;;;;;;;;;;5052722;28;20274;-76
2023/12/18 05:18:41;;;;;;;0.90;0.67;;;;;;;;;;5035905;28;20264;-78
2023/12/18 05:21:09;;;;;;;0.50;0.50;;;;;;;;;;5053848;28;20225;-78
2023/12/18 05:23:37;;;;;;;4.33;3.37;;;;;;;;;;5053563;28;20252;-76
2023/12/18 05:26:21;;;;;;;1.07;0.80;;;;;;;;;;5038806;28;20231;-79
2023/12/18 05:28:48;;;;;;;0.90;0.70;;;;;;;;;;5053780;28;20260;-80
2023/12/18 05:31:16;;;;;;;1.20;1.10;;;;;;;;;;5052608;28;20278;-79
2023/12/18 05:33:43;;;;;;;0.70;0.57;;;;;;;;;;5054159;28;20186;-79
2023/12/18 05:36:10;;;;;;;1.17;0.53;;;;;;;;;;5053783;28;20183;-81
2023/12/18 05:38:37;;;;;;;0.53;0.50;;;;;;;;;;5053534;28;20205;-79
2023/12/18 05:41:04;;;;;;;0.90;0.53;;;;;;;;;;5051798;28;20609;-74
2023/12/18 05:43:31;;;;;;;0.93;0.60;;;;;;;;;;5053849;28;20183;-73
2023/12/18 05:45:57;;;;;;;0.67;0.50;;;;;;;;;;5052198;28;20531;-74
2023/12/18 05:48:24;;;;;;;1.67;1.57;;;;;;;;;;5019415;28;20644;-75
2023/12/18 05:50:51;;;;;;;4.40;2.97;;;;;;;;;;5053086;28;20216;-74
2023/12/18 05:53:18;;;;;;;0.80;0.70;;;;;;;;;;5035718;28;20179;-75
2023/12/18 05:55:44;;;;;;;1.27;0.50;;;;;;;;;;5051934;28;20661;-74
2023/12/18 05:58:11;;;;;;;1.00;0.60;;;;;;;;;;5053473;28;20183;-76
2023/12/18 06:00:38;;;;;;;1.43;0.80;;;;;;;;;;5052973;28;20282;-74
2023/12/18 06:03:05;;;;;;;0.87;0.57;;;;;;;;;;5053088;28;20183;-74
2023/12/18 06:05:31;;;;;;;0.90;0.67;;;;;;;;;;5053128;28;20182;-74
2023/12/18 06:07:58;;;;;;;0.60;0.50;;;;;;;;;;5053050;28;20206;-74
2023/12/18 06:10:25;;;;;;;2.53;1.50;;;;;;;;;;5053391;28;20194;-74
2023/12/18 06:12:51;;;;;;;0.90;0.67;;;;;;;;;;5056783;28;20195;-74
2023/12/18 06:15:18;;;;;;;1.10;0.63;;;;;;;;;;5055894;28;20245;-74
2023/12/18 06:17:45;;;;;;;0.93;0.73;;;;;;;;;;5055683;28;20209;-74
2023/12/18 06:20:11;;;;;;;1.00;0.90;;;;;;;;;;5055532;28;20202;-74
2023/12/18 06:22:38;;;;;;;3.60;1.90;;;;;;;;;;5039321;28;20546;-74
2023/12/18 06:25:05;;;;;;;1.07;0.90;;;;;;;;;;5063321;28;20213;-74
2023/12/18 06:27:32;;;;;;;4.43;2.90;;;;;;;;;;5093453;28;20197;-74
2023/12/18 06:29:59;;;;;;;1.43;0.70;;;;;;;;;;5075391;28;20280;-75
2023/12/18 06:35:53;;;;;;;0.40;0.40;;;;;;;;;;5074128;28;20293;-75
2023/12/18 06:38:36;;;;;;;0.77;0.73;;;;;;;;;;5076504;28;20170;-75
2023/12/18 06:41:26;;;;;;;0.70;0.70;;;;;;;;;;5077164;28;20239;-74
2023/12/18 06:44:04;;;;;;;0.73;0.60;;;;;;;;;;5076510;28;20213;-75
2023/12/18 06:46:47;;;;;;;0.63;0.50;;;;;;;;;;5090262;28;20216;-75
2023/12/18 06:49:34;;;;;;;0.90;0.80;;;;;;;;;;5061519;28;20173;-75
2023/12/18 06:52:14;;;;;;;0.80;0.60;;;;;;;;;;5076876;28;20216;-75
2023/12/18 06:55:00;;;;;;;0.80;0.80;;;;;;;;;;5072449;28;20222;-75
2023/12/18 06:57:53;;;;;;;1.33;0.87;;;;;;;;;;5039163;28;20214;-74
2023/12/18 07:00:33;;;;;;;0.53;0.53;;;;;;;;;;5038818;28;20411;-75
2023/12/18 07:03:21;;;;;;;1.00;0.70;;;;;;;;;;5056199;28;20159;-75
2023/12/18 07:06:18;;;;;;;2.10;0.90;;;;;;;;;;5056526;28;20162;-75
2023/12/18 07:09:19;;;;;;;2.80;0.93;;;;;;;;;;5054368;28;20205;-74
2023/12/18 07:12:46;;;;;;;0.70;0.67;;;;;;;;;;5056705;28;20187;-74
2023/12/18 07:18:48;;;;;;;;;;;;;;;;;;;;;
2023/12/18 07:21:58;;;;;;;1.23;0.93;;;;;;;;;;5033957;28;20729;-75
2023/12/18 07:24:55;;;;;;;2.30;1.37;;;;;;;;;;5052338;28;20199;-74
2023/12/18 07:28:01;;;;;;;1.07;0.93;;;;;;;;;;5042285;28;20206;-75
2023/12/18 07:31:00;;;;;;;2.10;1.30;;;;;;;;;;5055968;28;20143;-75
2023/12/18 07:33:49;;;;;;;2.90;1.30;;;;;;;;;;5056168;28;20583;-75
2023/12/18 07:36:40;;;;;;;2.27;1.10;;;;;;;;;;5054498;28;20183;-76
2023/12/18 07:39:38;;;;;;;2.57;1.10;;;;;;;;;;5056345;28;20257;-75
2023/12/18 07:42:43;;;;;;;1.70;1.00;;;;;;;;;;5055613;28;20206;-75
2023/12/18 07:45:58;;;;;;;1.00;0.90;;;;;;;;;;5054635;28;20518;-75
2023/12/18 07:48:57;;;;;;;0.90;0.83;;;;;;;;;;5054001;28;20174;-75
2023/12/18 07:51:43;;;;;;;1.97;0.70;;;;;;;;;;5040199;28;20239;-75
2023/12/18 07:54:28;;;;;;;2.40;1.00;;;;;;;;;;5055418;28;20182;-75
2023/12/18 07:57:14;;;;;;;1.77;0.67;;;;;;;;;;5072823;28;20288;-75
2023/12/18 07:59:57;;;;;;;0.87;0.80;;;;;;;;;;5069224;28;20201;-74
2023/12/18 08:06:38;;;;;;;2.63;2.20;;;;;;;;;;5075259;28;20142;-75
2023/12/18 08:09:26;;;;;;;3.00;2.10;;;;;;;;;;5074881;28;20261;-75
2023/12/18 08:12:21;;;;;;;2.60;1.90;;;;;;;;;;5075033;28;20187;-75
2023/12/18 08:15:02;;;;;;;1.40;1.20;;;;;;;;;;5057786;28;20170;-76
2023/12/18 08:17:45;;;;;;;2.40;1.80;;;;;;;;;;5074692;28;20166;-74
2023/12/18 08:20:24;;;;;;;2.73;1.30;;;;;;;;;;5040005;28;20209;-73
2023/12/18 08:26:49;;;;;;;1.57;1.10;;;;;;;;;;5066611;28;20285;-73
2023/12/18 08:29:39;;;;;;;2.40;1.20;;;;;;;;;;5058486;28;20501;-74
2023/12/18 08:32:22;;;;;;;1.47;1.20;;;;;;;;;;5074446;28;20198;-74
2023/12/18 08:35:00;;;;;;;2.07;1.20;;;;;;;;;;5074284;28;20197;-74
2023/12/18 08:37:54;;;;;;;2.10;1.20;;;;;;;;;;5056765;28;20198;-74
2023/12/18 08:40:40;;;;;;;2.67;1.40;;;;;;;;;;5058583;28;20557;-74
2023/12/18 08:43:33;;;;;;;1.63;0.93;;;;;;;;;;5057678;28;20597;-72
2023/12/18 08:46:55;;;;;;;1.30;0.90;;;;;;;;;;5061614;28;20295;-74
2023/12/18 08:49:39;;;;;;;1.67;1.07;;;;;;;;;;5073852;28;20210;-76
2023/12/18 08:52:50;;;;;;;;;;;;;;;;;;;;;
2023/12/18 08:55:52;;;;;;;0.93;0.77;;;;;;;;;;5071043;28;20230;-74
2023/12/18 08:58:57;;;;;;;;;;;;;;;;;;;;;
2023/12/18 09:01:47;;;;;;;1.67;1.20;;;;;;;;;;5073854;28;20189;-73
2023/12/18 09:04:31;;;;;;;1.17;0.90;;;;;;;;;;5074516;28;20245;-73
2023/12/18 09:07:30;;;;;;;1.73;0.90;;;;;;;;;;5074402;28;20165;-73
2023/12/18 09:10:33;;;;;;;;;;;;;;;;;;;;;
2023/12/18 09:13:20;;;;;;;3.60;1.20;;;;;;;;;;5072837;28;20189;-73
2023/12/18 09:16:20;;;;;;;1.97;1.30;;;;;;;;;;5069457;28;20194;-74
2023/12/18 09:18:58;;;;;;;1.50;1.10;;;;;;;;;;5073301;28;20210;-74
2023/12/18 09:25:31;;;;;;;2.03;1.10;;;;;;;;;;5059623;28;20186;-74
2023/12/18 09:28:24;;;;;;;4.77;1.60;;;;;;;;;;5073549;28;20260;-74
2023/12/18 09:31:21;;;;;;;2.80;1.17;;;;;;;;;;5073797;28;20149;-74
2023/12/18 09:34:20;;;;;;;2.30;1.43;;;;;;;;;;5072493;28;20201;-74
2023/12/18 09:37:14;;;;;;;3.50;1.67;;;;;;;;;;5073497;28;20167;-74
2023/12/18 09:54:05;;;;;;;1.13;0.93;;;;;;;;;;5063916;28;20651;-73
2023/12/18 09:57:31;;;;;;;2.33;1.00;;;;;;;;;;5073564;28;20232;-74
2023/12/18 10:00:33;;;;;;;1.67;1.10;;;;;;;;;;5075577;28;20246;-73
2023/12/18 10:03:35;;;;;;;1.80;1.43;;;;;;;;;;5093552;28;20193;-74
2023/12/18 10:06:40;;;;;;;0.80;0.67;;;;;;;;;;5093313;28;20268;-73
2023/12/18 10:09:28;;;;;;;1.47;1.30;;;;;;;;;;5094286;28;20236;-74
2023/12/18 10:12:18;;;;;;;3.17;1.20;;;;;;;;;;5074548;28;20197;-73
2023/12/18 10:15:28;;;;;;;1.30;1.20;;;;;;;;;;5093204;28;20165;-74
2023/12/18 10:18:43;;;;;;;0.80;0.67;;;;;;;;;;5093011;28;20177;-73
2023/12/18 10:21:36;;;;;;;1.63;1.13;;;;;;;;;;5075224;28;20215;-74
2023/12/18 10:54:50;;;;;;;4.87;1.30;;;;;;;;;;4933216;29;20182;-75
2023/12/18 10:57:18;;;;;;;2.73;1.60;;;;;;;;;;4922333;28;20226;-74
2023/12/18 10:59:46;;;;;;;2.10;1.30;;;;;;;;;;5034034;28;20211;-73
2023/12/18 11:05:26;;;;;;;2.63;1.67;;;;;;;;;;5055615;28;20217;-74
2023/12/18 11:11:52;;;;;;;2.10;1.70;;;;;;;;;;5056231;28;20153;-73
2023/12/18 11:14:24;;;;;;;2.23;1.53;;;;;;;;;;5056500;28;20214;-73
2023/12/18 11:16:58;;;;;;;2.13;1.30;;;;;;;;;;5037242;28;20333;-73
2023/12/18 11:19:25;;;;;;;3.23;1.50;;;;;;;;;;5055342;28;20214;-74
2023/12/18 11:21:53;;;;;;;1.83;1.30;;;;;;;;;;5055496;28;20522;-74
2023/12/18 11:24:21;;;;;;;1.20;1.10;;;;;;;;;;5054814;28;20178;-74
2023/12/18 11:26:48;;;;;;;1.50;0.93;;;;;;;;;;5055056;28;20561;-74
2023/12/18 11:29:42;;;;;;;2.60;1.50;;;;;;;;;;5038087;28;20240;-74
2023/12/18 11:32:39;;;;;;;2.40;1.80;;;;;;;;;;5054653;28;20165;-74
2023/12/18 11:35:11;;;;;;;1.70;1.60;;;;;;;;;;5055864;28;20544;-75
2023/12/18 11:37:45;;;;;;;1.77;1.40;;;;;;;;;;5054040;28;20179;-74
2023/12/18 11:40:36;;;;;;;2.67;1.30;;;;;;;;;;5055987;28;20167;-74
2023/12/18 11:43:36;;;;;;;2.47;1.10;;;;;;;;;;5070015;28;20645;-74
2023/12/18 11:46:07;;;;;;;1.30;1.20;;;;;;;;;;5076029;28;20629;-74
2023/12/18 11:48:44;;;;;;;2.13;1.40;;;;;;;;;;5043390;28;20174;-74
2023/12/18 11:51:13;;;;;;;2.03;1.50;;;;;;;;;;5073791;28;20181;-74
2023/12/18 11:53:41;;;;;;;1.80;1.40;;;;;;;;;;5057419;28;20174;-75
2023/12/18 11:56:08;;;;;;;1.63;1.30;;;;;;;;;;5069230;28;20223;-74
2023/12/18 11:58:36;;;;;;;2.37;1.80;;;;;;;;;;5055990;28;20177;-74
2023/12/18 12:01:41;;;;;;;2.67;1.47;;;;;;;;;;5053530;28;20299;-74
2023/12/18 12:05:05;;;;;;;2.50;1.10;;;;;;;;;;5056862;28;20212;-75
2023/12/18 12:15:16;;;;;;;1.73;1.40;;;;;;;;;;4968517;28;20219;-74
2023/12/18 12:56:48;;;;;;;1.87;1.77;;;;;;;;;;4947340;28;20221;-73
2023/12/18 12:59:15;;;;;;;3.07;1.50;;;;;;;;;;5032228;28;20190;-73
2023/12/18 13:01:42;;;;;;;1.60;1.30;;;;;;;;;;5015917;28;20207;-74
2023/12/18 13:04:09;;;;;;;3.30;1.77;;;;;;;;;;5015899;28;20199;-74
2023/12/18 13:06:36;;;;;;;2.60;1.80;;;;;;;;;;4999956;28;20199;-74
2023/12/18 13:09:04;;;;;;;2.97;1.90;;;;;;;;;;5032764;28;20199;-74
2023/12/18 13:11:34;;;;;;;3.37;2.00;;;;;;;;;;5049728;28;20207;-73
2023/12/18 13:14:02;;;;;;;5.77;1.97;;;;;;;;;;5052828;28;20236;-74
2023/12/18 13:16:40;;;;;;;2.10;1.50;;;;;;;;;;5054556;28;20163;-73
2023/12/18 13:19:06;;;;;;;3.03;1.73;;;;;;;;;;5052696;28;20257;-74
2023/12/18 13:21:33;;;;;;;3.70;1.80;;;;;;;;;;5068551;28;20252;-74
2023/12/18 13:24:00;;;;;;;3.50;1.47;;;;;;;;;;5053265;28;20210;-73
2023/12/18 13:26:28;;;;;;;3.60;1.90;;;;;;;;;;5052829;28;20175;-73
2023/12/18 13:28:55;;;;;;;3.73;2.27;;;;;;;;;;5052507;28;20201;-74
2023/12/18 13:31:21;;;;;;;2.63;2.13;;;;;;;;;;5036502;28;20198;-74
2023/12/18 13:33:49;;;;;;;3.17;1.77;;;;;;;;;;5054055;28;20281;-74
2023/12/18 13:36:18;;;;;;;2.10;1.63;;;;;;;;;;5053076;28;20179;-74
2023/12/18 13:38:45;;;;;;;2.80;2.03;;;;;;;;;;5052608;28;20182;-74
2023/12/18 13:41:12;;;;;;;2.20;1.50;;;;;;;;;;5053933;28;20716;-74
2023/12/18 13:43:40;;;;;;;2.30;1.90;;;;;;;;;;5052648;28;20213;-75
2023/12/18 13:46:07;;;;;;;3.60;2.40;;;;;;;;;;5054390;28;20187;-74
2023/12/18 13:48:34;;;;;;;3.17;2.00;;;;;;;;;;5053486;28;20186;-74
2023/12/18 13:51:01;;;;;;;4.40;2.30;;;;;;;;;;5053479;28;20186;-74
2023/12/18 13:53:28;;;;;;;3.80;2.67;;;;;;;;;;5053987;28;20214;-75
2023/12/18 13:55:55;;;;;;;2.53;1.87;;;;;;;;;;5053650;28;20219;-75
2023/12/18 13:58:21;;;;;;;4.03;1.87;;;;;;;;;;5053016;28;20233;-75
2023/12/18 14:00:48;;;;;;;3.43;2.20;;;;;;;;;;5052732;28;20194;-75
2023/12/18 14:03:15;;;;;;;4.13;2.03;;;;;;;;;;5053329;28;20677;-75
2023/12/18 14:05:42;;;;;;;4.07;2.60;;;;;;;;;;5053456;28;20329;-75
2023/12/18 14:08:09;;;;;;;2.53;1.73;;;;;;;;;;5053485;28;20623;-73
2023/12/18 14:10:36;;;;;;;3.47;1.83;;;;;;;;;;5052931;28;20183;-74
2023/12/18 14:13:02;;;;;;;4.30;2.53;;;;;;;;;;5053240;28;20179;-75
2023/12/18 14:15:30;;;;;;;4.60;2.17;;;;;;;;;;5052340;28;20638;-74
2023/12/18 14:17:57;;;;;;;3.60;2.13;;;;;;;;;;5053250;28;20294;-75
2023/12/18 14:20:24;;;;;;;2.53;2.00;;;;;;;;;;5056948;28;20217;-75
2023/12/18 14:22:51;;;;;;;2.30;2.00;;;;;;;;;;5074058;28;20225;-74
2023/12/18 14:25:20;;;;;;;2.23;1.57;;;;;;;;;;5073689;28;20174;-74
2023/12/18 14:27:47;;;;;;;3.63;2.00;;;;;;;;;;5073688;28;20178;-75
2023/12/18 14:30:14;;;;;;;2.17;1.63;;;;;;;;;;5055546;28;20530;-73
2023/12/18 14:32:45;;;;;;;2.80;1.83;;;;;;;;;;5057342;28;20197;-75
2023/12/18 14:35:13;;;;;;;3.10;2.00;;;;;;;;;;5059542;28;20253;-73
2023/12/18 14:37:41;;;;;;;2.93;2.20;;;;;;;;;;5042176;28;20597;-74
2023/12/18 14:40:08;;;;;;;3.63;2.93;;;;;;;;;;5060026;28;20584;-74
2023/12/18 14:42:35;;;;;;;6.03;3.20;;;;;;;;;;5077184;28;20202;-74
2023/12/18 14:45:02;;;;;;;4.43;3.37;;;;;;;;;;5076645;28;20211;-74
2023/12/18 14:47:46;;;;;;;4.60;2.80;;;;;;;;;;5077225;28;20241;-75
2023/12/18 14:50:15;;;;;;;5.33;2.93;;;;;;;;;;5059155;28;20636;-75
2023/12/18 14:52:42;;;;;;;6.03;3.63;;;;;;;;;;5058835;28;20190;-74
2023/12/18 14:55:18;;;;;;;4.73;3.27;;;;;;;;;;5060602;28;20220;-74
2023/12/18 14:57:45;;;;;;;5.80;3.37;;;;;;;;;;5076923;28;20301;-74
2023/12/18 15:00:12;;;;;;;4.10;2.63;;;;;;;;;;5058911;28;20182;-75
2023/12/18 15:02:42;;;;;;;4.10;2.80;;;;;;;;;;5076194;28;20312;-75
2023/12/18 15:05:10;;;;;;;3.97;2.90;;;;;;;;;;5025572;28;20194;-74
2023/12/18 15:07:36;;;;;;;5.87;3.90;;;;;;;;;;5076175;28;20190;-73
2023/12/18 15:10:04;;;;;;;4.87;3.17;;;;;;;;;;5058435;28;20190;-75
2023/12/18 15:12:31;;;;;;;8.83;4.40;;;;;;;;;;5041996;28;20644;-74
2023/12/18 15:14:58;;;;;;;7.53;4.33;;;;;;;;;;5042085;28;20182;-74
2023/12/18 15:17:25;;;;;;;5.97;3.90;;;;;;;;;;5058364;28;20668;-75
2023/12/18 15:19:52;;;;;;;5.03;3.80;;;;;;;;;;5058072;28;20214;-75
2023/12/18 15:22:19;;;;;;;5.33;3.50;;;;;;;;;;5075826;28;20209;-74
2023/12/18 15:24:49;;;;;;;5.40;3.43;;;;;;;;;;5059486;28;20186;-75
2023/12/18 15:27:16;;;;;;;5.40;3.50;;;;;;;;;;5058042;28;20648;-75
2023/12/18 15:29:43;;;;;;;5.57;3.80;;;;;;;;;;5076266;28;20189;-74
2023/12/18 15:32:11;;;;;;;5.00;3.30;;;;;;;;;;5075887;28;20186;-74
2023/12/18 15:34:38;;;;;;;5.67;3.57;;;;;;;;;;5075957;28;20186;-74
2023/12/18 15:37:05;;;;;;;4.73;2.80;;;;;;;;;;5057777;28;20182;-74
2023/12/18 15:39:32;;;;;;;4.47;2.80;;;;;;;;;;5058463;28;20190;-75
2023/12/18 15:41:59;;;;;;;5.37;3.63;;;;;;;;;;5075510;28;20210;-75
2023/12/18 15:44:26;;;;;;;4.13;2.90;;;;;;;;;;5074771;28;20182;-75
2023/12/18 15:46:53;;;;;;;5.90;3.70;;;;;;;;;;5041423;28;20240;-75
2023/12/18 15:49:25;;;;;;;5.20;3.77;;;;;;;;;;5075220;28;20186;-75
2023/12/18 15:51:53;;;;;;;6.40;3.50;;;;;;;;;;5075409;28;20174;-74
2023/12/18 15:54:20;;;;;;;6.20;3.10;;;;;;;;;;5041135;28;20182;-75
2023/12/18 15:56:47;;;;;;;4.27;2.73;;;;;;;;;;5040654;28;20214;-75
2023/12/18 15:59:14;;;;;;;3.53;2.37;;;;;;;;;;5057426;28;20186;-74
2023/12/18 16:01:45;;;;;;;4.70;2.53;;;;;;;;;;5075192;28;20236;-63
2023/12/18 16:04:12;;;;;;;4.17;3.27;;;;;;;;;;5074829;28;20558;-65
2023/12/18 16:06:40;;;;;;;4.90;2.90;;;;;;;;;;5057049;28;20182;-73
2023/12/18 16:09:10;;;;;;;4.20;3.27;;;;;;;;;;5057636;28;20675;-74
2023/12/18 16:11:38;;;;;;;5.13;3.50;;;;;;;;;;5057722;28;20197;-74
2023/12/18 16:14:05;;;;;;;4.03;2.97;;;;;;;;;;5074893;28;20637;-74
2023/12/18 16:16:33;;;;;;;4.47;2.90;;;;;;;;;;5057681;28;20186;-74
2023/12/18 16:18:59;;;;;;;7.23;2.50;;;;;;;;;;5057157;28;20289;-74
2023/12/18 16:21:28;;;;;;;4.50;3.17;;;;;;;;;;5074640;28;20198;-73
2023/12/18 16:28:05;;;;;;;5.17;2.87;;;;;;;;;;5074794;28;20165;-73
2023/12/18 16:34:31;;;;;;;3.70;2.60;;;;;;;;;;5074670;28;20206;-74
2023/12/18 16:36:59;;;;;;;3.97;3.10;;;;;;;;;;5040267;28;20213;-73
2023/12/18 16:39:26;;;;;;;4.97;3.33;;;;;;;;;;5040148;28;20200;-74
2023/12/18 16:41:53;;;;;;;4.43;2.90;;;;;;;;;;5074862;28;20205;-74
2023/12/18 16:44:20;;;;;;;6.27;4.00;;;;;;;;;;5074710;28;20300;-74
2023/12/18 16:46:47;;;;;;;7.33;4.60;;;;;;;;;;5074145;28;20257;-74
2023/12/18 16:49:14;;;;;;;8.40;5.03;;;;;;;;;;5040251;28;20243;-78
2023/12/18 16:51:41;;;;;;;8.93;4.37;;;;;;;;;;5040066;28;20693;-84
2023/12/18 16:54:08;;;;;;;8.13;4.77;;;;;;;;;;5039975;28;20236;-77
2023/12/18 16:56:35;;;;;;;5.87;4.77;;;;;;;;;;5074522;28;20228;-75
2023/12/18 16:59:03;;;;;;;7.40;4.70;;;;;;;;;;5056515;28;20196;-77
2023/12/18 17:01:30;;;;;;;7.20;5.50;;;;;;;;;;5056772;28;20629;-75
2023/12/18 17:03:57;;;;;;;7.33;5.17;;;;;;;;;;5057674;28;20258;-78
2023/12/18 17:06:42;;;;;;;6.77;5.17;;;;;;;;;;5059267;28;20161;-78
2023/12/18 17:09:10;;;;;;;6.57;4.90;;;;;;;;;;5074569;28;20178;-77
2023/12/18 17:11:39;;;;;;;6.70;5.13;;;;;;;;;;5056695;28;20194;-77
2023/12/18 17:14:08;;;;;;;8.40;5.40;;;;;;;;;;5059031;28;20206;-78
2023/12/18 17:16:36;;;;;;;8.17;5.70;;;;;;;;;;5040259;28;20182;-81
2023/12/18 17:19:03;;;;;;;9.80;6.60;;;;;;;;;;5075483;28;20202;-79
2023/12/18 17:21:30;;;;;;;8.27;6.10;;;;;;;;;;5039655;28;20200;-78
2023/12/18 17:23:58;;;;;;;7.97;5.10;;;;;;;;;;5074082;28;20197;-79
2023/12/18 17:26:43;;;;;;;6.97;4.30;;;;;;;;;;5056814;28;20200;-78
2023/12/18 17:29:10;;;;;;;7.53;5.00;;;;;;;;;;5074003;28;20178;-76
2023/12/18 17:31:37;;;;;;;7.77;5.33;;;;;;;;;;5041767;28;20515;-76
2023/12/18 17:38:05;;;;;;;6.87;4.40;;;;;;;;;;5085025;28;20219;-76
2023/12/18 17:40:32;;;;;;;11.43;5.10;;;;;;;;;;5066946;28;20647;-78
2023/12/18 17:43:00;;;;;;;7.90;4.90;;;;;;;;;;5047861;28;20220;-77
2023/12/18 17:45:27;;;;;;;8.67;5.47;;;;;;;;;;5063846;28;20198;-74
2023/12/18 17:47:54;;;;;;;7.70;5.67;;;;;;;;;;5050241;28;20185;-73
2023/12/18 17:50:22;;;;;;;9.40;6.53;;;;;;;;;;5061799;28;20197;-74
2023/12/18 17:52:50;;;;;;;10.10;6.60;;;;;;;;;;5062810;28;20247;-75
2023/12/18 17:55:17;;;;;;;9.83;6.37;;;;;;;;;;5064660;28;20178;-79
2023/12/18 17:57:43;;;;;;;8.73;6.10;;;;;;;;;;5033093;28;20231;-79
2023/12/18 18:00:11;;;;;;;8.77;6.03;;;;;;;;;;5039509;28;20296;-77
2023/12/18 18:02:38;;;;;;;8.23;5.03;;;;;;;;;;5022714;28;20192;-78
2023/12/18 18:05:08;;;;;;;8.23;5.57;;;;;;;;;;5022764;28;20199;-77
2023/12/18 18:07:36;;;;;;;7.63;5.50;;;;;;;;;;5040986;28;20530;-77
2023/12/18 18:10:09;;;;;;;7.00;5.33;;;;;;;;;;5027000;28;20227;-77
2023/12/18 18:12:36;;;;;;;7.30;5.33;;;;;;;;;;5027211;28;20206;-77
2023/12/18 18:15:04;;;;;;;7.93;4.87;;;;;;;;;;5028680;28;20187;-77